createdAt,value
2022-12-27T00:00:28.167Z,6.50
2022-12-27T00:02:55.193Z,6.50
2022-12-27T00:05:21.964Z,6.50
2022-12-27T00:07:48.884Z,6.60
2022-12-27T00:10:15.605Z,6.70
2022-12-27T00:12:42.363Z,6.60
2022-12-27T00:15:09.643Z,6.60
2022-12-27T00:17:36.508Z,6.70
2022-12-27T00:20:11.073Z,6.60
2022-12-27T00:22:39.087Z,6.60
2022-12-27T00:25:06.216Z,6.50
2022-12-27T00:27:32.933Z,6.40
2022-12-27T00:29:59.638Z,6.40
2022-12-27T00:32:26.496Z,6.40
2022-12-27T00:34:53.226Z,6.40
2022-12-27T00:37:19.952Z,6.40
2022-12-27T00:39:47.313Z,6.60
2022-12-27T00:42:14.055Z,6.60
2022-12-27T00:44:41.789Z,6.60
2022-12-27T00:47:08.883Z,6.60
2022-12-27T00:49:35.970Z,6.20
2022-12-27T00:52:02.717Z,5.80
2022-12-27T00:54:29.508Z,5.40
2022-12-27T00:56:56.235Z,5.10
2022-12-27T00:59:22.954Z,5.00
2022-12-27T01:01:49.863Z,4.80
2022-12-27T01:04:17.341Z,4.80
2022-12-27T01:06:44.517Z,4.80
2022-12-27T01:09:11.259Z,4.70
2022-12-27T01:11:40.253Z,4.60
2022-12-27T01:14:06.968Z,4.60
2022-12-27T01:16:34.177Z,4.50
2022-12-27T01:19:01.138Z,4.40
2022-12-27T01:21:30.695Z,4.40
2022-12-27T01:23:58.555Z,4.30
2022-12-27T01:26:25.343Z,4.20
2022-12-27T01:28:53.129Z,4.30
2022-12-27T01:31:23.040Z,4.20
2022-12-27T01:33:49.999Z,4.10
2022-12-27T01:36:22.290Z,4.10
2022-12-27T01:38:49.811Z,4.00
2022-12-27T01:41:42.679Z,3.90
2022-12-27T01:44:37.577Z,3.80
2022-12-27T01:47:12.144Z,3.80
2022-12-27T01:49:55.798Z,3.80
2022-12-27T01:52:23.447Z,3.90
2022-12-27T01:54:51.634Z,3.90
2022-12-27T01:57:18.420Z,3.80
2022-12-27T01:59:45.699Z,3.60
2022-12-27T02:02:12.698Z,3.50
2022-12-27T02:04:40.219Z,3.50
2022-12-27T02:07:07.109Z,3.40
2022-12-27T02:09:42.648Z,3.40
2022-12-27T02:12:10.671Z,3.40
2022-12-27T02:14:44.408Z,3.30
2022-12-27T02:17:14.690Z,3.30
2022-12-27T02:19:41.482Z,3.10
2022-12-27T02:22:23.198Z,3.10
2022-12-27T02:25:15.795Z,3.20
2022-12-27T02:27:49.752Z,3.20
2022-12-27T02:30:16.715Z,3.10
2022-12-27T02:33:07.720Z,2.90
2022-12-27T02:35:40.136Z,3.00
2022-12-27T02:38:15.794Z,2.90
2022-12-27T02:41:08.821Z,2.90
2022-12-27T02:43:54.496Z,2.80
2022-12-27T02:46:42.402Z,2.80
2022-12-27T02:49:47.927Z,2.70
2022-12-27T02:53:03.700Z,2.70
2022-12-27T02:56:10.991Z,2.60
2022-12-27T02:59:04.816Z,2.60
2022-12-27T03:02:07.762Z,2.50
2022-12-27T03:05:22.051Z,2.50
2022-12-27T03:08:04.690Z,2.40
2022-12-27T03:10:59.785Z,2.40
2022-12-27T03:14:05.166Z,2.40
2022-12-27T03:16:41.650Z,2.40
2022-12-27T03:19:51.390Z,2.30
2022-12-27T03:22:39.550Z,2.20
2022-12-27T03:25:25.453Z,2.10
2022-12-27T03:28:13.247Z,2.00
2022-12-27T03:30:59.734Z,1.90
2022-12-27T03:33:30.377Z,2.10
2022-12-27T03:36:32.295Z,2.10
2022-12-27T03:39:24.440Z,2.10
2022-12-27T03:42:13.817Z,2.00
2022-12-27T03:44:40.684Z,2.00
2022-12-27T03:47:21.875Z,2.00
2022-12-27T03:49:54.607Z,2.10
2022-12-27T03:52:46.492Z,2.00
2022-12-27T03:55:13.800Z,1.90
2022-12-27T03:57:41.950Z,1.90
2022-12-27T04:00:09.333Z,1.90
2022-12-27T04:02:37.127Z,1.90
2022-12-27T04:05:04.223Z,1.90
2022-12-27T04:07:31.090Z,1.90
2022-12-27T04:10:16.584Z,1.90
2022-12-27T04:13:02.427Z,1.90
2022-12-27T04:15:47.819Z,1.80
2022-12-27T04:18:34.684Z,1.80
2022-12-27T04:21:22.089Z,1.80
2022-12-27T04:24:07.486Z,1.80
2022-12-27T04:26:54.485Z,1.90
2022-12-27T04:29:39.617Z,1.80
2022-12-27T04:32:24.845Z,1.70
2022-12-27T04:34:51.601Z,1.60
2022-12-27T04:37:20.130Z,1.60
2022-12-27T04:40:08.792Z,1.60
2022-12-27T04:42:54.303Z,1.40
2022-12-27T04:45:40.429Z,1.40
2022-12-27T04:48:33.357Z,1.30
2022-12-27T04:51:19.147Z,1.30
2022-12-27T04:54:04.469Z,1.20
2022-12-27T04:56:31.243Z,1.10
2022-12-27T04:59:16.413Z,1.10
2022-12-27T05:02:02.417Z,1.00
2022-12-27T05:04:30.588Z,0.90
2022-12-27T05:06:58.600Z,0.90
2022-12-27T05:09:44.083Z,0.90
2022-12-27T05:12:29.514Z,0.80
2022-12-27T05:14:56.269Z,0.80
2022-12-27T05:17:23.024Z,0.80
2022-12-27T05:19:49.752Z,0.80
2022-12-27T05:22:34.890Z,0.70
2022-12-27T05:25:20.265Z,0.70
2022-12-27T05:27:47.013Z,0.70
2022-12-27T05:30:13.776Z,0.70
2022-12-27T05:32:40.510Z,0.80
2022-12-27T05:35:07.635Z,0.80
2022-12-27T05:37:34.386Z,0.80
2022-12-27T05:40:01.125Z,0.80
2022-12-27T05:42:27.880Z,0.80
2022-12-27T05:44:54.633Z,0.80
2022-12-27T05:47:21.400Z,0.70
2022-12-27T05:49:48.150Z,0.60
2022-12-27T05:52:14.925Z,0.50
2022-12-27T05:54:41.691Z,0.40
2022-12-27T05:57:08.433Z,0.40
2022-12-27T05:59:35.147Z,0.30
2022-12-27T06:02:02.065Z,0.30
2022-12-27T06:04:29.170Z,0.30
2022-12-27T06:06:55.905Z,0.10
2022-12-27T06:09:22.763Z,0.10
2022-12-27T06:11:49.504Z,0.10
2022-12-27T06:14:16.239Z,0.00
2022-12-27T06:16:43.067Z,0.00
2022-12-27T06:19:09.855Z,0.00
2022-12-27T06:21:36.676Z,0.00
2022-12-27T06:24:03.625Z,0.00
2022-12-27T06:26:30.722Z,0.00
2022-12-27T06:28:58.542Z,0.00
2022-12-27T06:31:26.380Z,-3276.70
2022-12-27T06:33:53.908Z,-3276.70
2022-12-27T06:36:23.704Z,-3276.60
2022-12-27T06:38:50.716Z,-3276.60
2022-12-27T06:41:18.461Z,-3276.60
2022-12-27T06:43:46.890Z,-3276.60
2022-12-27T06:46:18.188Z,-3276.50
2022-12-27T06:48:46.907Z,-3276.50
2022-12-27T06:51:15.480Z,-3276.50
2022-12-27T06:53:42.238Z,-3276.50
2022-12-27T06:56:11.649Z,-3276.50
2022-12-27T06:58:38.656Z,-3276.40
2022-12-27T07:01:14.276Z,-3276.50
2022-12-27T07:03:41.259Z,-3276.60
2022-12-27T07:06:14.019Z,-3276.60
2022-12-27T07:08:40.908Z,-3276.70
2022-12-27T07:11:10.418Z,0.00
2022-12-27T07:13:40.064Z,0.00
2022-12-27T07:16:08.615Z,0.20
2022-12-27T07:18:35.662Z,0.30
2022-12-27T07:21:20.035Z,0.30
2022-12-27T07:23:46.992Z,0.40
2022-12-27T07:26:17.037Z,0.40
2022-12-27T07:28:44.624Z,0.40
2022-12-27T07:31:17.674Z,0.50
2022-12-27T07:33:44.932Z,0.60
2022-12-27T07:36:18.205Z,0.70
2022-12-27T07:38:45.393Z,0.80
2022-12-27T07:41:13.797Z,0.80
2022-12-27T07:43:40.859Z,0.80
2022-12-27T07:46:10.637Z,0.80
2022-12-27T07:48:38.263Z,0.80
2022-12-27T07:51:05.802Z,0.90
2022-12-27T07:53:33.321Z,0.90
2022-12-27T07:56:00.205Z,1.00
2022-12-27T07:58:26.936Z,1.10
2022-12-27T08:00:53.726Z,1.20
2022-12-27T08:03:20.693Z,1.30
2022-12-27T08:05:54.319Z,1.30
2022-12-27T08:08:27.057Z,1.40
2022-12-27T08:10:53.765Z,1.40
2022-12-27T08:13:20.502Z,1.40
2022-12-27T08:15:47.235Z,1.50
2022-12-27T08:18:13.976Z,1.50
2022-12-27T08:20:40.716Z,1.50
2022-12-27T08:23:07.488Z,1.60
2022-12-27T08:25:34.223Z,1.60
2022-12-27T08:28:09.033Z,1.70
2022-12-27T08:30:35.953Z,1.90
2022-12-27T08:33:04.155Z,1.90
2022-12-27T08:35:52.237Z,1.90
2022-12-27T08:38:18.362Z,2.00
2022-12-27T08:40:45.877Z,2.00
2022-12-27T08:43:13.003Z,2.10
2022-12-27T08:45:40.137Z,2.20
2022-12-27T08:48:07.627Z,2.20
2022-12-27T08:50:34.535Z,2.30
2022-12-27T08:53:03.179Z,2.30
2022-12-27T08:55:30.985Z,2.40
2022-12-27T08:57:58.864Z,2.50
2022-12-27T09:00:26.782Z,2.50
2022-12-27T09:02:54.315Z,2.50
2022-12-27T09:05:22.448Z,2.60
2022-12-27T09:07:49.308Z,2.60
2022-12-27T09:10:17.197Z,2.70
2022-12-27T09:12:45.519Z,2.80
2022-12-27T09:15:13.206Z,2.80
2022-12-27T09:17:40.991Z,2.90
2022-12-27T09:20:08.531Z,3.00
2022-12-27T09:22:36.439Z,3.10
2022-12-27T09:25:03.398Z,3.20
2022-12-27T09:27:30.457Z,3.20
2022-12-27T09:29:57.193Z,3.20
2022-12-27T09:32:27.357Z,3.30
2022-12-27T09:34:54.657Z,3.40
2022-12-27T09:37:21.468Z,3.50
2022-12-27T09:39:48.211Z,3.50
2022-12-27T09:42:54.735Z,3.60
2022-12-27T09:45:40.150Z,3.60
2022-12-27T09:48:33.434Z,3.60
2022-12-27T09:51:17.929Z,3.60
2022-12-27T09:53:57.201Z,3.70
2022-12-27T09:56:46.977Z,3.80
2022-12-27T09:59:39.007Z,3.90
2022-12-27T10:02:22.167Z,3.90
2022-12-27T10:05:19.019Z,4.00
2022-12-27T10:07:52.594Z,4.00
2022-12-27T10:10:53.308Z,4.00
2022-12-27T10:13:34.067Z,4.10
2022-12-27T10:16:53.639Z,4.20
2022-12-27T10:19:48.844Z,4.30
2022-12-27T10:22:35.383Z,4.30
2022-12-27T10:25:12.445Z,4.40
2022-12-27T10:27:40.728Z,4.40
2022-12-27T10:30:19.957Z,4.50
2022-12-27T10:32:47.610Z,4.50
2022-12-27T10:35:17.064Z,4.70
2022-12-27T10:37:44.990Z,4.80
2022-12-27T10:40:27.676Z,4.80
2022-12-27T10:43:16.617Z,4.80
2022-12-27T10:45:43.367Z,4.90
2022-12-27T10:48:28.850Z,5.10
2022-12-27T10:51:08.870Z,5.20
2022-12-27T10:53:48.170Z,5.30
2022-12-27T10:56:21.016Z,5.30
2022-12-27T10:58:58.266Z,5.30
2022-12-27T11:01:29.317Z,5.40
2022-12-27T11:04:21.536Z,5.50
2022-12-27T11:07:14.942Z,5.60
2022-12-27T11:09:50.128Z,5.70
2022-12-27T11:12:28.590Z,5.70
2022-12-27T11:15:04.375Z,5.80
2022-12-27T11:17:39.419Z,5.90
2022-12-27T11:20:14.845Z,6.10
2022-12-27T11:22:50.962Z,6.30
2022-12-27T11:25:18.419Z,6.40
2022-12-27T11:27:48.496Z,6.40
2022-12-27T11:30:30.010Z,6.50
2022-12-27T11:33:02.629Z,6.70
2022-12-27T11:35:29.896Z,6.70
2022-12-27T11:37:57.028Z,6.80
2022-12-27T11:40:30.653Z,6.90
2022-12-27T11:43:07.684Z,6.90
2022-12-27T11:45:50.668Z,7.10
2022-12-27T11:48:45.286Z,7.30
2022-12-27T11:51:30.197Z,7.20
2022-12-27T11:54:38.884Z,6.70
2022-12-27T11:57:41.247Z,6.50
2022-12-27T12:00:20.386Z,6.80
2022-12-27T12:03:08.621Z,7.40
2022-12-27T12:06:10.435Z,7.50
2022-12-27T12:09:07.918Z,7.80
2022-12-27T12:12:02.220Z,7.70
2022-12-27T12:14:58.455Z,7.50
2022-12-27T12:17:46.201Z,7.00
2022-12-27T12:20:51.131Z,6.90
2022-12-27T12:24:00.449Z,6.50
2022-12-27T12:26:35.563Z,6.30
2022-12-27T12:29:21.083Z,6.40
2022-12-27T12:32:14.868Z,6.30
2022-12-27T12:35:12.216Z,6.30
2022-12-27T12:38:21.380Z,6.30
2022-12-27T12:41:22.071Z,6.30
2022-12-27T12:43:58.360Z,6.30
2022-12-27T12:46:38.343Z,6.40
2022-12-27T12:49:24.068Z,6.70
2022-12-27T12:52:12.565Z,6.80
2022-12-27T12:54:46.775Z,6.80
2022-12-27T12:57:38.346Z,6.50
2022-12-27T13:00:29.550Z,6.30
2022-12-27T13:03:15.671Z,6.10
2022-12-27T13:06:28.325Z,6.00
2022-12-27T13:09:04.662Z,5.90
2022-12-27T13:11:58.007Z,6.40
2022-12-27T13:14:45.803Z,6.30
2022-12-27T13:17:19.139Z,6.70
2022-12-27T13:20:06.795Z,6.90
2022-12-27T13:23:11.937Z,7.00
2022-12-27T13:25:52.010Z,7.40
2022-12-27T13:28:43.411Z,7.00
2022-12-27T13:31:51.003Z,6.90
2022-12-27T13:34:42.550Z,7.20
2022-12-27T13:37:32.397Z,7.20
2022-12-27T13:40:25.443Z,7.70
2022-12-27T13:43:13.648Z,7.50
2022-12-27T13:45:55.195Z,7.30
2022-12-27T13:48:33.563Z,7.40
2022-12-27T13:51:19.326Z,7.20
2022-12-27T13:53:46.079Z,7.20
2022-12-27T13:56:53.979Z,7.90
2022-12-27T13:59:41.317Z,9.00
2022-12-27T14:02:14.383Z,8.90
2022-12-27T14:05:11.128Z,8.80
2022-12-27T14:07:54.979Z,8.80
2022-12-27T14:10:45.777Z,9.30
2022-12-27T14:13:14.220Z,9.80
2022-12-27T14:15:55.663Z,9.40
2022-12-27T14:18:43.377Z,8.90
2022-12-27T14:21:19.082Z,8.20
2022-12-27T14:24:04.884Z,7.50
2022-12-27T14:26:50.235Z,7.10
2022-12-27T14:29:28.391Z,6.90
2022-12-27T14:32:32.568Z,6.60
2022-12-27T14:35:37.381Z,6.30
2022-12-27T14:38:21.885Z,6.00
2022-12-27T14:40:54.699Z,5.70
2022-12-27T14:43:49.106Z,5.60
2022-12-27T14:46:36.814Z,5.60
2022-12-27T14:49:18.238Z,5.50
2022-12-27T14:52:13.131Z,5.40
2022-12-27T14:55:15.107Z,5.30
2022-12-27T14:58:18.972Z,5.20
2022-12-27T15:01:12.628Z,5.10
2022-12-27T15:04:02.669Z,5.00
2022-12-27T15:06:52.262Z,4.90
2022-12-27T15:09:45.689Z,4.90
2022-12-27T15:12:12.542Z,4.80
2022-12-27T15:15:12.897Z,4.80
2022-12-27T15:17:45.236Z,4.70
2022-12-27T15:20:26.609Z,4.70
2022-12-27T15:22:59.264Z,4.60
2022-12-27T15:25:52.904Z,4.50
2022-12-27T15:28:48.219Z,4.40
2022-12-27T15:31:50.165Z,4.40
2022-12-27T15:34:42.165Z,4.30
2022-12-27T15:37:46.895Z,4.10
2022-12-27T15:40:32.255Z,4.00
2022-12-27T15:43:13.311Z,3.90
2022-12-27T15:45:58.933Z,3.80
2022-12-27T15:48:49.935Z,3.80
2022-12-27T15:51:33.184Z,3.70
2022-12-27T15:54:26.125Z,3.60
2022-12-27T15:57:22.049Z,3.50
2022-12-27T16:00:17.701Z,3.40
2022-12-27T16:02:44.564Z,3.30
2022-12-27T16:05:20.511Z,3.20
2022-12-27T16:08:07.518Z,3.00
2022-12-27T16:10:41.387Z,2.90
2022-12-27T16:13:11.570Z,2.80
2022-12-27T16:15:52.074Z,2.80
2022-12-27T16:18:21.701Z,2.70
2022-12-27T16:21:20.397Z,2.60
2022-12-27T16:23:52.809Z,2.60
2022-12-27T16:26:35.960Z,2.60
2022-12-27T16:29:07.887Z,2.70
2022-12-27T16:31:45.135Z,2.80
2022-12-27T16:34:32.644Z,2.90
2022-12-27T16:37:02.094Z,3.00
2022-12-27T16:40:09.238Z,3.10
2022-12-27T16:42:55.539Z,3.30
2022-12-27T16:45:39.155Z,3.30
2022-12-27T16:48:18.234Z,3.20
2022-12-27T16:50:55.701Z,3.10
2022-12-27T16:53:47.424Z,3.00
2022-12-27T16:56:19.165Z,3.00
2022-12-27T16:58:51.474Z,2.90
2022-12-27T17:01:38.632Z,2.90
2022-12-27T17:04:05.508Z,2.80
2022-12-27T17:06:54.621Z,2.70
2022-12-27T17:09:21.353Z,2.60
2022-12-27T17:11:53.999Z,2.60
2022-12-27T17:14:27.910Z,2.50
2022-12-27T17:17:16.806Z,2.50
2022-12-27T17:19:59.508Z,2.40
2022-12-27T17:22:34.149Z,2.40
2022-12-27T17:25:03.348Z,2.40
2022-12-27T17:28:11.840Z,2.40
2022-12-27T17:30:54.858Z,2.40
2022-12-27T17:33:29.706Z,2.30
2022-12-27T17:36:15.472Z,2.30
2022-12-27T17:38:54.338Z,2.30
2022-12-27T17:42:22.078Z,2.40
2022-12-27T17:45:08.465Z,2.40
2022-12-27T17:47:41.178Z,2.20
2022-12-27T17:50:20.950Z,1.90
2022-12-27T17:53:28.256Z,1.80
2022-12-27T17:56:31.359Z,1.60
2022-12-27T17:59:27.811Z,1.50
2022-12-27T18:02:04.908Z,1.40
2022-12-27T18:04:41.293Z,1.30
2022-12-27T18:07:12.707Z,1.30
2022-12-27T18:09:45.556Z,1.20
2022-12-27T18:12:20.132Z,1.20
2022-12-27T18:15:03.518Z,1.20
2022-12-27T18:17:59.103Z,1.10
2022-12-27T18:20:25.910Z,1.10
2022-12-27T18:23:01.604Z,1.00
2022-12-27T18:25:32.808Z,1.00
2022-12-27T18:28:04.133Z,1.00
2022-12-27T18:30:42.572Z,0.90
2022-12-27T18:33:12.775Z,0.90
2022-12-27T18:35:40.515Z,0.90
2022-12-27T18:38:08.357Z,0.80
2022-12-27T18:40:35.739Z,0.70
2022-12-27T18:43:02.859Z,0.60
2022-12-27T18:45:33.389Z,0.60
2022-12-27T18:48:02.260Z,0.70
2022-12-27T18:50:34.072Z,0.70
2022-12-27T18:53:22.449Z,0.60
2022-12-27T18:55:58.789Z,0.60
2022-12-27T18:58:26.294Z,0.60
2022-12-27T19:01:26.538Z,0.60
2022-12-27T19:04:15.116Z,0.50
2022-12-27T19:06:54.108Z,0.50
2022-12-27T19:09:25.630Z,0.40
2022-12-27T19:12:01.486Z,0.20
2022-12-27T19:14:37.372Z,0.30
2022-12-27T19:17:10.614Z,0.20
2022-12-27T19:19:38.317Z,0.20
2022-12-27T19:22:34.448Z,0.10
2022-12-27T19:25:18.422Z,0.00
2022-12-27T19:27:59.977Z,0.00
2022-12-27T19:30:51.272Z,0.00
2022-12-27T19:33:28.573Z,0.00
2022-12-27T19:35:56.413Z,-3276.70
2022-12-27T19:38:26.580Z,-3276.70
2022-12-27T19:41:01.438Z,-3276.60
2022-12-27T19:43:41.881Z,-3276.60
2022-12-27T19:46:11.708Z,-3276.50
2022-12-27T19:48:39.277Z,-3276.50
2022-12-27T19:51:07.420Z,-3276.40
2022-12-27T19:53:38.402Z,-3276.50
2022-12-27T19:56:07.770Z,-3276.50
2022-12-27T19:58:35.357Z,-3276.50
2022-12-27T20:01:02.521Z,-3276.50
2022-12-27T20:03:29.721Z,-3276.30
2022-12-27T20:06:12.668Z,-3276.10
2022-12-27T20:08:48.350Z,-3276.00
2022-12-27T20:11:18.162Z,-3275.80
2022-12-27T20:13:46.840Z,-3275.80
2022-12-27T20:16:17.550Z,-3275.80
2022-12-27T20:18:45.270Z,-3275.80
2022-12-27T20:21:21.036Z,-3275.80
2022-12-27T20:23:48.191Z,-3275.70
2022-12-27T20:26:19.461Z,-3275.80
2022-12-27T20:28:46.471Z,-3275.80
2022-12-27T20:31:15.496Z,-3275.70
2022-12-27T20:33:42.736Z,-3275.70
2022-12-27T20:36:10.482Z,-3275.80
2022-12-27T20:38:40.291Z,-3275.80
2022-12-27T20:41:16.318Z,-3275.60
2022-12-27T20:43:43.637Z,-3275.70
2022-12-27T20:46:12.723Z,-3275.70
2022-12-27T20:48:40.805Z,-3275.70
2022-12-27T20:51:16.310Z,-3275.60
2022-12-27T20:53:43.787Z,-3275.60
2022-12-27T20:56:12.878Z,-3275.50
2022-12-27T20:58:39.971Z,-3275.50
2022-12-27T21:01:12.276Z,-3275.50
2022-12-27T21:03:39.515Z,-3275.50
2022-12-27T21:06:12.826Z,-3275.40
2022-12-27T21:08:46.577Z,-3275.50
2022-12-27T21:11:21.892Z,-3275.50
2022-12-27T21:13:49.256Z,-3275.40
2022-12-27T21:16:22.086Z,-3275.40
2022-12-27T21:18:49.581Z,-3275.30
2022-12-27T21:21:19.887Z,-3275.30
2022-12-27T21:23:47.750Z,-3275.30
2022-12-27T21:26:19.901Z,-3275.30
2022-12-27T21:28:47.372Z,-3275.30
2022-12-27T21:31:16.067Z,-3275.20
2022-12-27T21:33:43.206Z,-3275.30
2022-12-27T21:36:15.762Z,-3275.30
2022-12-27T21:38:43.440Z,-3275.20
2022-12-27T21:41:16.397Z,-3275.10
2022-12-27T21:43:44.349Z,-3275.10
2022-12-27T21:46:22.726Z,-3275.10
2022-12-27T21:49:04.163Z,-3275.10
2022-12-27T21:51:32.129Z,-3275.10
2022-12-27T21:53:59.211Z,-3275.10
2022-12-27T21:56:26.205Z,-3275.00
2022-12-27T21:58:55.476Z,-3275.00
2022-12-27T22:01:25.792Z,-3275.00
2022-12-27T22:03:53.909Z,-3275.00
2022-12-27T22:06:24.923Z,-3275.10
2022-12-27T22:08:54.465Z,-3275.00
2022-12-27T22:11:22.714Z,-3275.10
2022-12-27T22:13:50.211Z,-3275.20
2022-12-27T22:16:24.107Z,-3275.20
2022-12-27T22:18:51.316Z,-3275.20
2022-12-27T22:21:27.905Z,-3275.20
2022-12-27T22:23:57.036Z,-3275.10
2022-12-27T22:26:29.223Z,-3275.10
2022-12-27T22:28:56.033Z,-3275.00
2022-12-27T22:31:26.606Z,-3274.90
2022-12-27T22:33:53.604Z,-3274.80
2022-12-27T22:36:23.453Z,-3274.80
2022-12-27T22:38:50.748Z,-3274.80
2022-12-27T22:41:32.160Z,-3274.90
2022-12-27T22:44:13.462Z,-3274.90
2022-12-27T22:49:28.501Z,-3274.90
2022-12-27T22:51:55.237Z,-3274.90
2022-12-27T22:55:05.719Z,-3274.80
2022-12-27T22:57:08.670Z,-3274.90
2022-12-27T22:59:35.442Z,-3274.90
2022-12-27T23:02:02.240Z,-3274.90
2022-12-27T23:04:29.386Z,-3274.90
2022-12-27T23:06:56.219Z,-3274.70
2022-12-27T23:09:22.958Z,-3274.70
2022-12-27T23:11:49.702Z,-3274.70
2022-12-27T23:14:16.781Z,-3274.70
2022-12-27T23:16:47.921Z,-3274.70
2022-12-27T23:19:19.894Z,-3274.60
2022-12-27T23:21:47.930Z,-3274.50
2022-12-27T23:24:14.915Z,-3274.50
2022-12-27T23:26:42.240Z,-3274.60
2022-12-27T23:29:12.612Z,-3274.60
2022-12-27T23:31:54.350Z,-3274.70
2022-12-27T23:34:27.658Z,-3274.70
2022-12-27T23:36:56.651Z,-3274.60
2022-12-27T23:39:23.429Z,-3274.60
2022-12-27T23:41:50.168Z,-3274.60
2022-12-27T23:44:33.102Z,-3274.60
2022-12-27T23:47:05.409Z,-3274.70
2022-12-27T23:49:32.545Z,-3274.70
2022-12-27T23:51:59.322Z,-3274.70
2022-12-27T23:54:26.031Z,-3274.70
2022-12-27T23:56:52.768Z,-3274.60
2022-12-27T23:59:19.563Z,-3274.60
